This is the latest recevied weather packets stored in our database for station/object N5GAH-13. If no packets are shown the sender has not sent any weather packets the latest 10 day(s).
| Time | Temp. | Humidity | Pressure | Rain* | Wind** | Luminosity | Snow |
|---|---|---|---|---|---|---|---|
| 1777528411 | 13.33° C | 63% | 1020.1 hPa | 0 mm | - | - | - |
| 1777526610 | 13.33° C | 61% | 1019.8 hPa | 0 mm | - | - | - |
| 1777524809 | 13.89° C | 61% | 1020 hPa | 0 mm | - | - | - |
| 1777523010 | 14.44° C | 60% | 1020 hPa | 0 mm | - | - | - |
| 1777519410 | 15.56° C | 57% | 1019.7 hPa | 0 mm | - | - | - |
| 1777517611 | 16.67° C | 55% | 1019.3 hPa | 0 mm | - | - | - |
| 1777515810 | 17.22° C | 53% | 1019.1 hPa | 0 mm | - | - | - |
| 1777514011 | 17.78° C | 52% | 1018.7 hPa | 0 mm | - | - | - |
| 1777512211 | 18.89° C | 49% | 1018.5 hPa | 0 mm | - | - | - |
| 1777506811 | 21.11° C | 43% | 1018 hPa | 0 mm | - | - | - |
| 1777505009 | 22.22° C | 40% | 1018 hPa | 0 mm | - | - | - |
| 1777503210 | 23.89° C | 37% | 1018 hPa | 0 mm | - | - | - |
| 1777501411 | 25° C | 35% | 1018.1 hPa | 0 mm | - | - | - |
| 1777499610 | 26.11° C | 33% | 1018.4 hPa | 0 mm | - | - | - |
| 1777497810 | 25.56° C | 34% | 1018.5 hPa | 0 mm | - | - | - |
| 1777496010 | 25.56° C | 35% | 1018.9 hPa | 0 mm | - | - | - |
| 1777494210 | 25.56° C | 36% | 1019.3 hPa | 0 mm | - | - | - |
| 1777492410 | 25.56° C | 35% | 1019.5 hPa | 0 mm | - | - | - |
| 1777490610 | 25° C | 40% | 1020.2 hPa | 0 mm | - | - | - |
| 1777488810 | 23.33° C | 41% | 1020.5 hPa | 0 mm | - | - | - |
| 1777483410 | 21.11° C | 49% | 1022 hPa | 0 mm | - | - | - |
| 1777481611 | 19.44° C | 52% | 1021.8 hPa | 0 mm | - | - | - |
| 1777479810 | 18.89° C | 56% | 1022.3 hPa | 0 mm | - | - | - |
| 1777478011 | 17.78° C | 59% | 1022.7 hPa | 0 mm | - | - | - |
| 1777476210 | 16.67° C | 62% | 1022 hPa | 0 mm | - | - | - |
* Rain latest hour (hover to see other rain measurements)
** Current wind speed in m/s (hover to see current wind gust speed)